sensor_id;sensor_type;location;lat;lon;timestamp;P1;durP1;ratioP1;P2;durP2;ratioP2
47519;SDS011;33252;48.122;11.538;2022-11-30T00:03:36;32.28;;;17.05;;
47519;SDS011;33252;48.122;11.538;2022-11-30T00:06:06;36.25;;;19.75;;
47519;SDS011;33252;48.122;11.538;2022-11-30T00:08:36;39.15;;;20.27;;
47519;SDS011;33252;48.122;11.538;2022-11-30T00:11:09;34.53;;;17.98;;
47519;SDS011;33252;48.122;11.538;2022-11-30T00:13:36;34.47;;;18.38;;
47519;SDS011;33252;48.122;11.538;2022-11-30T00:16:02;39.75;;;20.25;;
47519;SDS011;33252;48.122;11.538;2022-11-30T00:18:28;45.50;;;21.73;;
47519;SDS011;33252;48.122;11.538;2022-11-30T00:20:54;38.28;;;19.23;;
47519;SDS011;33252;48.122;11.538;2022-11-30T00:23:24;38.75;;;19.50;;
47519;SDS011;33252;48.122;11.538;2022-11-30T00:25:49;42.05;;;20.75;;
47519;SDS011;33252;48.122;11.538;2022-11-30T00:28:15;37.60;;;19.23;;
47519;SDS011;33252;48.122;11.538;2022-11-30T00:30:40;41.90;;;20.55;;
47519;SDS011;33252;48.122;11.538;2022-11-30T00:33:06;41.60;;;20.83;;
47519;SDS011;33252;48.122;11.538;2022-11-30T00:35:32;38.30;;;19.55;;
47519;SDS011;33252;48.122;11.538;2022-11-30T00:38:00;35.28;;;18.75;;
47519;SDS011;33252;48.122;11.538;2022-11-30T00:40:27;35.80;;;18.83;;
47519;SDS011;33252;48.122;11.538;2022-11-30T00:42:52;41.33;;;21.08;;
47519;SDS011;33252;48.122;11.538;2022-11-30T00:45:18;38.88;;;20.83;;
47519;SDS011;33252;48.122;11.538;2022-11-30T00:47:43;40.10;;;20.63;;
47519;SDS011;33252;48.122;11.538;2022-11-30T00:50:09;39.90;;;21.25;;
47519;SDS011;33252;48.122;11.538;2022-11-30T00:52:35;41.45;;;20.85;;
47519;SDS011;33252;48.122;11.538;2022-11-30T00:55:01;43.08;;;19.05;;
47519;SDS011;33252;48.122;11.538;2022-11-30T00:57:26;33.53;;;17.92;;
47519;SDS011;33252;48.122;11.538;2022-11-30T00:59:52;33.60;;;17.52;;
47519;SDS011;33252;48.122;11.538;2022-11-30T01:02:17;34.97;;;17.42;;
47519;SDS011;33252;48.122;11.538;2022-11-30T01:04:43;32.55;;;16.92;;
47519;SDS011;33252;48.122;11.538;2022-11-30T01:07:09;35.33;;;16.77;;
47519;SDS011;33252;48.122;11.538;2022-11-30T01:09:34;42.35;;;21.00;;
47519;SDS011;33252;48.122;11.538;2022-11-30T01:12:00;40.33;;;18.75;;
47519;SDS011;33252;48.122;11.538;2022-11-30T01:14:25;39.67;;;19.38;;
47519;SDS011;33252;48.122;11.538;2022-11-30T01:16:51;40.30;;;20.30;;
47519;SDS011;33252;48.122;11.538;2022-11-30T01:19:17;41.97;;;21.08;;
47519;SDS011;33252;48.122;11.538;2022-11-30T01:21:43;45.13;;;21.25;;
47519;SDS011;33252;48.122;11.538;2022-11-30T01:24:08;41.28;;;21.15;;
47519;SDS011;33252;48.122;11.538;2022-11-30T01:26:34;38.58;;;20.55;;
47519;SDS011;33252;48.122;11.538;2022-11-30T01:29:00;46.15;;;22.20;;
47519;SDS011;33252;48.122;11.538;2022-11-30T01:31:26;39.42;;;21.20;;
47519;SDS011;33252;48.122;11.538;2022-11-30T01:33:52;41.72;;;21.83;;
47519;SDS011;33252;48.122;11.538;2022-11-30T01:36:20;42.00;;;20.80;;
47519;SDS011;33252;48.122;11.538;2022-11-30T01:38:50;41.67;;;21.70;;
47519;SDS011;33252;48.122;11.538;2022-11-30T01:41:21;39.03;;;19.38;;
47519;SDS011;33252;48.122;11.538;2022-11-30T01:43:52;38.30;;;19.92;;
47519;SDS011;33252;48.122;11.538;2022-11-30T01:46:45;42.70;;;21.13;;
47519;SDS011;33252;48.122;11.538;2022-11-30T01:49:19;37.35;;;18.80;;
47519;SDS011;33252;48.122;11.538;2022-11-30T01:51:59;47.85;;;20.73;;
47519;SDS011;33252;48.122;11.538;2022-11-30T01:54:34;42.55;;;21.85;;
47519;SDS011;33252;48.122;11.538;2022-11-30T01:57:17;43.85;;;23.10;;
47519;SDS011;33252;48.122;11.538;2022-11-30T02:02:17;39.72;;;21.02;;
47519;SDS011;33252;48.122;11.538;2022-11-30T02:04:48;40.33;;;21.40;;
47519;SDS011;33252;48.122;11.538;2022-11-30T02:07:15;42.17;;;19.33;;
47519;SDS011;33252;48.122;11.538;2022-11-30T02:09:43;38.72;;;20.15;;
47519;SDS011;33252;48.122;11.538;2022-11-30T02:12:54;44.65;;;21.10;;
47519;SDS011;33252;48.122;11.538;2022-11-30T02:15:07;46.85;;;22.85;;
47519;SDS011;33252;48.122;11.538;2022-11-30T02:17:49;39.55;;;20.80;;
47519;SDS011;33252;48.122;11.538;2022-11-30T02:23:17;43.67;;;22.58;;
47519;SDS011;33252;48.122;11.538;2022-11-30T02:26:18;49.78;;;23.08;;
47519;SDS011;33252;48.122;11.538;2022-11-30T02:29:15;45.88;;;22.15;;
47519;SDS011;33252;48.122;11.538;2022-11-30T02:31:49;50.00;;;23.95;;
47519;SDS011;33252;48.122;11.538;2022-11-30T02:34:21;46.45;;;23.40;;
47519;SDS011;33252;48.122;11.538;2022-11-30T02:36:50;52.03;;;25.50;;
47519;SDS011;33252;48.122;11.538;2022-11-30T02:39:19;48.15;;;24.10;;
47519;SDS011;33252;48.122;11.538;2022-11-30T02:41:47;48.03;;;21.58;;
47519;SDS011;33252;48.122;11.538;2022-11-30T02:44:13;48.20;;;22.27;;
47519;SDS011;33252;48.122;11.538;2022-11-30T02:47:01;50.85;;;24.10;;
47519;SDS011;33252;48.122;11.538;2022-11-30T02:52:15;47.35;;;22.30;;
47519;SDS011;33252;48.122;11.538;2022-11-30T02:54:44;38.95;;;20.65;;
47519;SDS011;33252;48.122;11.538;2022-11-30T02:57:11;44.72;;;22.05;;
47519;SDS011;33252;48.122;11.538;2022-11-30T02:59:36;46.95;;;23.13;;
47519;SDS011;33252;48.122;11.538;2022-11-30T03:02:02;53.80;;;22.73;;
47519;SDS011;33252;48.122;11.538;2022-11-30T03:04:28;44.83;;;23.27;;
47519;SDS011;33252;48.122;11.538;2022-11-30T03:06:54;44.85;;;21.83;;
47519;SDS011;33252;48.122;11.538;2022-11-30T03:09:19;43.67;;;22.13;;
47519;SDS011;33252;48.122;11.538;2022-11-30T03:11:45;45.80;;;20.85;;
47519;SDS011;33252;48.122;11.538;2022-11-30T03:14:12;39.63;;;18.88;;
47519;SDS011;33252;48.122;11.538;2022-11-30T03:16:37;42.47;;;19.77;;
47519;SDS011;33252;48.122;11.538;2022-11-30T03:19:03;41.75;;;18.85;;
47519;SDS011;33252;48.122;11.538;2022-11-30T03:21:29;40.83;;;18.33;;
47519;SDS011;33252;48.122;11.538;2022-11-30T03:23:55;37.45;;;17.52;;
47519;SDS011;33252;48.122;11.538;2022-11-30T03:26:20;31.48;;;15.50;;
47519;SDS011;33252;48.122;11.538;2022-11-30T03:28:46;34.70;;;15.73;;
47519;SDS011;33252;48.122;11.538;2022-11-30T03:31:12;30.42;;;14.93;;
47519;SDS011;33252;48.122;11.538;2022-11-30T03:33:41;33.17;;;15.90;;
47519;SDS011;33252;48.122;11.538;2022-11-30T03:36:08;35.75;;;17.55;;
47519;SDS011;33252;48.122;11.538;2022-11-30T03:38:35;39.17;;;18.10;;
47519;SDS011;33252;48.122;11.538;2022-11-30T03:43:28;35.55;;;17.05;;
47519;SDS011;33252;48.122;11.538;2022-11-30T03:45:54;34.70;;;16.67;;
47519;SDS011;33252;48.122;11.538;2022-11-30T03:48:20;33.50;;;17.55;;
47519;SDS011;33252;48.122;11.538;2022-11-30T03:50:46;35.58;;;16.98;;
47519;SDS011;33252;48.122;11.538;2022-11-30T03:53:14;32.15;;;16.60;;
47519;SDS011;33252;48.122;11.538;2022-11-30T03:55:41;34.72;;;15.80;;
47519;SDS011;33252;48.122;11.538;2022-11-30T03:58:07;31.00;;;14.32;;
47519;SDS011;33252;48.122;11.538;2022-11-30T04:00:32;32.25;;;16.75;;
47519;SDS011;33252;48.122;11.538;2022-11-30T04:02:58;28.48;;;15.23;;
47519;SDS011;33252;48.122;11.538;2022-11-30T04:05:24;37.95;;;16.65;;
47519;SDS011;33252;48.122;11.538;2022-11-30T04:07:49;32.35;;;16.10;;
47519;SDS011;33252;48.122;11.538;2022-11-30T04:10:15;36.25;;;17.10;;
47519;SDS011;33252;48.122;11.538;2022-11-30T04:12:41;31.40;;;15.32;;
47519;SDS011;33252;48.122;11.538;2022-11-30T04:15:07;34.15;;;16.58;;
47519;SDS011;33252;48.122;11.538;2022-11-30T04:17:33;36.58;;;17.55;;
47519;SDS011;33252;48.122;11.538;2022-11-30T04:19:58;35.58;;;16.38;;
47519;SDS011;33252;48.122;11.538;2022-11-30T04:22:24;35.35;;;17.98;;
47519;SDS011;33252;48.122;11.538;2022-11-30T04:24:49;37.65;;;17.42;;
47519;SDS011;33252;48.122;11.538;2022-11-30T04:27:15;41.38;;;18.77;;
47519;SDS011;33252;48.122;11.538;2022-11-30T04:29:41;38.60;;;18.30;;
47519;SDS011;33252;48.122;11.538;2022-11-30T04:32:06;34.95;;;17.45;;
47519;SDS011;33252;48.122;11.538;2022-11-30T04:34:32;39.15;;;18.08;;
47519;SDS011;33252;48.122;11.538;2022-11-30T04:36:57;45.50;;;18.63;;
47519;SDS011;33252;48.122;11.538;2022-11-30T04:39:23;47.53;;;20.50;;
47519;SDS011;33252;48.122;11.538;2022-11-30T04:41:49;39.03;;;20.75;;
47519;SDS011;33252;48.122;11.538;2022-11-30T04:44:14;43.40;;;19.58;;
47519;SDS011;33252;48.122;11.538;2022-11-30T04:46:40;39.53;;;19.50;;
47519;SDS011;33252;48.122;11.538;2022-11-30T04:49:06;43.95;;;20.58;;
47519;SDS011;33252;48.122;11.538;2022-11-30T04:51:31;39.22;;;19.83;;
47519;SDS011;33252;48.122;11.538;2022-11-30T04:53:57;43.13;;;20.00;;
47519;SDS011;33252;48.122;11.538;2022-11-30T04:56:23;40.67;;;18.80;;
47519;SDS011;33252;48.122;11.538;2022-11-30T04:58:48;48.53;;;21.08;;
47519;SDS011;33252;48.122;11.538;2022-11-30T05:01:14;37.25;;;19.83;;
47519;SDS011;33252;48.122;11.538;2022-11-30T05:03:39;36.70;;;18.63;;
47519;SDS011;33252;48.122;11.538;2022-11-30T05:06:05;42.40;;;20.25;;
47519;SDS011;33252;48.122;11.538;2022-11-30T05:08:31;34.28;;;17.98;;
47519;SDS011;33252;48.122;11.538;2022-11-30T05:10:56;36.47;;;18.58;;
47519;SDS011;33252;48.122;11.538;2022-11-30T05:13:23;36.67;;;16.15;;
47519;SDS011;33252;48.122;11.538;2022-11-30T05:15:49;38.08;;;19.77;;
47519;SDS011;33252;48.122;11.538;2022-11-30T05:18:17;39.47;;;17.98;;
47519;SDS011;33252;48.122;11.538;2022-11-30T05:20:47;39.55;;;18.60;;
47519;SDS011;33252;48.122;11.538;2022-11-30T05:23:13;33.40;;;15.80;;
47519;SDS011;33252;48.122;11.538;2022-11-30T05:25:40;39.20;;;18.83;;
47519;SDS011;33252;48.122;11.538;2022-11-30T05:28:06;39.20;;;18.27;;
47519;SDS011;33252;48.122;11.538;2022-11-30T05:30:32;36.35;;;17.65;;
47519;SDS011;33252;48.122;11.538;2022-11-30T05:32:57;38.10;;;18.02;;
47519;SDS011;33252;48.122;11.538;2022-11-30T05:35:23;37.15;;;18.63;;
47519;SDS011;33252;48.122;11.538;2022-11-30T05:37:49;36.28;;;18.25;;
47519;SDS011;33252;48.122;11.538;2022-11-30T05:40:14;32.90;;;17.33;;
47519;SDS011;33252;48.122;11.538;2022-11-30T05:42:40;34.00;;;17.42;;
47519;SDS011;33252;48.122;11.538;2022-11-30T05:45:06;36.40;;;18.30;;
47519;SDS011;33252;48.122;11.538;2022-11-30T05:47:32;34.45;;;17.08;;
47519;SDS011;33252;48.122;11.538;2022-11-30T05:49:57;33.65;;;16.63;;
47519;SDS011;33252;48.122;11.538;2022-11-30T05:52:23;31.20;;;18.65;;
47519;SDS011;33252;48.122;11.538;2022-11-30T05:54:49;31.92;;;16.13;;
47519;SDS011;33252;48.122;11.538;2022-11-30T05:57:14;29.25;;;16.13;;
47519;SDS011;33252;48.122;11.538;2022-11-30T05:59:40;37.55;;;15.90;;
47519;SDS011;33252;48.122;11.538;2022-11-30T06:02:06;29.13;;;15.90;;
47519;SDS011;33252;48.122;11.538;2022-11-30T06:04:34;31.67;;;16.35;;
47519;SDS011;33252;48.122;11.538;2022-11-30T06:07:00;30.63;;;16.38;;
47519;SDS011;33252;48.122;11.538;2022-11-30T06:09:26;33.75;;;16.70;;
47519;SDS011;33252;48.122;11.538;2022-11-30T06:11:52;29.65;;;16.73;;
47519;SDS011;33252;48.122;11.538;2022-11-30T06:14:18;29.98;;;15.95;;
47519;SDS011;33252;48.122;11.538;2022-11-30T06:16:44;38.00;;;17.13;;
47519;SDS011;33252;48.122;11.538;2022-11-30T06:19:09;34.78;;;17.30;;
47519;SDS011;33252;48.122;11.538;2022-11-30T06:21:35;32.97;;;16.42;;
47519;SDS011;33252;48.122;11.538;2022-11-30T06:24:01;33.45;;;16.27;;
47519;SDS011;33252;48.122;11.538;2022-11-30T06:26:26;35.63;;;17.08;;
47519;SDS011;33252;48.122;11.538;2022-11-30T06:28:52;28.45;;;15.32;;
47519;SDS011;33252;48.122;11.538;2022-11-30T06:31:18;30.05;;;14.98;;
47519;SDS011;33252;48.122;11.538;2022-11-30T06:33:43;31.35;;;16.23;;
47519;SDS011;33252;48.122;11.538;2022-11-30T06:36:09;31.52;;;16.00;;
47519;SDS011;33252;48.122;11.538;2022-11-30T06:38:35;31.88;;;16.25;;
47519;SDS011;33252;48.122;11.538;2022-11-30T06:41:02;33.08;;;18.13;;
47519;SDS011;33252;48.122;11.538;2022-11-30T06:43:33;34.22;;;16.70;;
47519;SDS011;33252;48.122;11.538;2022-11-30T06:46:00;28.67;;;15.32;;
47519;SDS011;33252;48.122;11.538;2022-11-30T06:48:28;29.55;;;15.18;;
47519;SDS011;33252;48.122;11.538;2022-11-30T06:50:53;30.20;;;15.70;;
47519;SDS011;33252;48.122;11.538;2022-11-30T06:53:19;27.92;;;13.88;;
47519;SDS011;33252;48.122;11.538;2022-11-30T06:55:44;26.67;;;13.52;;
47519;SDS011;33252;48.122;11.538;2022-11-30T06:58:10;30.63;;;14.30;;
47519;SDS011;33252;48.122;11.538;2022-11-30T07:00:36;33.92;;;15.15;;
47519;SDS011;33252;48.122;11.538;2022-11-30T07:03:03;32.88;;;15.70;;
47519;SDS011;33252;48.122;11.538;2022-11-30T07:05:31;28.20;;;14.13;;
47519;SDS011;33252;48.122;11.538;2022-11-30T07:07:59;32.17;;;16.25;;
47519;SDS011;33252;48.122;11.538;2022-11-30T07:10:24;28.80;;;15.15;;
47519;SDS011;33252;48.122;11.538;2022-11-30T07:12:50;31.05;;;14.02;;
47519;SDS011;33252;48.122;11.538;2022-11-30T07:15:16;33.35;;;15.68;;
47519;SDS011;33252;48.122;11.538;2022-11-30T07:17:42;29.45;;;14.48;;
47519;SDS011;33252;48.122;11.538;2022-11-30T07:20:07;29.42;;;13.45;;
47519;SDS011;33252;48.122;11.538;2022-11-30T07:22:33;27.77;;;13.80;;
47519;SDS011;33252;48.122;11.538;2022-11-30T07:24:59;29.88;;;14.07;;
47519;SDS011;33252;48.122;11.538;2022-11-30T07:27:43;29.40;;;14.98;;
47519;SDS011;33252;48.122;11.538;2022-11-30T07:30:09;31.02;;;15.85;;
47519;SDS011;33252;48.122;11.538;2022-11-30T07:32:35;28.63;;;13.30;;
47519;SDS011;33252;48.122;11.538;2022-11-30T07:35:01;28.92;;;15.02;;
47519;SDS011;33252;48.122;11.538;2022-11-30T07:37:26;31.17;;;14.25;;
47519;SDS011;33252;48.122;11.538;2022-11-30T07:39:52;27.70;;;13.75;;
47519;SDS011;33252;48.122;11.538;2022-11-30T07:42:17;34.05;;;14.65;;
47519;SDS011;33252;48.122;11.538;2022-11-30T07:44:43;30.73;;;16.30;;
47519;SDS011;33252;48.122;11.538;2022-11-30T07:47:09;34.30;;;16.02;;
47519;SDS011;33252;48.122;11.538;2022-11-30T07:49:34;29.38;;;15.88;;
47519;SDS011;33252;48.122;11.538;2022-11-30T07:52:00;36.33;;;17.60;;
47519;SDS011;33252;48.122;11.538;2022-11-30T07:54:28;32.10;;;16.55;;
47519;SDS011;33252;48.122;11.538;2022-11-30T07:56:54;36.00;;;17.55;;
47519;SDS011;33252;48.122;11.538;2022-11-30T07:59:19;32.63;;;15.88;;
47519;SDS011;33252;48.122;11.538;2022-11-30T08:01:45;29.25;;;15.55;;
47519;SDS011;33252;48.122;11.538;2022-11-30T08:04:10;29.80;;;16.38;;
47519;SDS011;33252;48.122;11.538;2022-11-30T08:06:37;33.00;;;17.65;;
47519;SDS011;33252;48.122;11.538;2022-11-30T08:09:03;32.70;;;16.83;;
47519;SDS011;33252;48.122;11.538;2022-11-30T08:11:31;34.70;;;18.27;;
47519;SDS011;33252;48.122;11.538;2022-11-30T08:13:59;32.03;;;16.13;;
47519;SDS011;33252;48.122;11.538;2022-11-30T08:16:26;33.75;;;17.35;;
47519;SDS011;33252;48.122;11.538;2022-11-30T08:18:56;32.88;;;16.20;;
47519;SDS011;33252;48.122;11.538;2022-11-30T08:21:23;34.38;;;17.73;;
47519;SDS011;33252;48.122;11.538;2022-11-30T08:23:53;28.42;;;17.02;;
47519;SDS011;33252;48.122;11.538;2022-11-30T08:26:21;30.42;;;15.70;;
47519;SDS011;33252;48.122;11.538;2022-11-30T08:28:49;35.97;;;16.60;;
47519;SDS011;33252;48.122;11.538;2022-11-30T08:31:20;39.17;;;18.05;;
47519;SDS011;33252;48.122;11.538;2022-11-30T08:33:54;31.65;;;16.55;;
47519;SDS011;33252;48.122;11.538;2022-11-30T08:36:21;36.35;;;17.52;;
47519;SDS011;33252;48.122;11.538;2022-11-30T08:38:47;33.70;;;17.38;;
47519;SDS011;33252;48.122;11.538;2022-11-30T08:41:15;35.55;;;16.83;;
47519;SDS011;33252;48.122;11.538;2022-11-30T08:43:43;36.45;;;17.73;;
47519;SDS011;33252;48.122;11.538;2022-11-30T08:46:10;36.25;;;17.83;;
47519;SDS011;33252;48.122;11.538;2022-11-30T08:48:37;35.92;;;17.63;;
47519;SDS011;33252;48.122;11.538;2022-11-30T08:51:04;37.17;;;18.38;;
47519;SDS011;33252;48.122;11.538;2022-11-30T08:53:31;34.25;;;16.77;;
47519;SDS011;33252;48.122;11.538;2022-11-30T08:56:02;37.47;;;17.83;;
47519;SDS011;33252;48.122;11.538;2022-11-30T08:58:31;31.40;;;15.85;;
47519;SDS011;33252;48.122;11.538;2022-11-30T09:01:05;33.03;;;15.65;;
47519;SDS011;33252;48.122;11.538;2022-11-30T09:03:36;35.33;;;17.70;;
47519;SDS011;33252;48.122;11.538;2022-11-30T09:06:03;37.05;;;18.40;;
47519;SDS011;33252;48.122;11.538;2022-11-30T09:08:33;37.05;;;18.20;;
47519;SDS011;33252;48.122;11.538;2022-11-30T09:13:35;35.25;;;17.13;;
47519;SDS011;33252;48.122;11.538;2022-11-30T09:16:05;32.83;;;16.20;;
47519;SDS011;33252;48.122;11.538;2022-11-30T09:18:33;28.08;;;17.25;;
47519;SDS011;33252;48.122;11.538;2022-11-30T09:21:00;36.00;;;16.38;;
47519;SDS011;33252;48.122;11.538;2022-11-30T09:23:27;31.55;;;17.00;;
47519;SDS011;33252;48.122;11.538;2022-11-30T09:25:56;37.65;;;16.88;;
47519;SDS011;33252;48.122;11.538;2022-11-30T09:28:23;34.90;;;17.23;;
47519;SDS011;33252;48.122;11.538;2022-11-30T09:30:50;31.65;;;16.88;;
47519;SDS011;33252;48.122;11.538;2022-11-30T09:33:16;32.53;;;16.33;;
47519;SDS011;33252;48.122;11.538;2022-11-30T09:35:42;36.65;;;17.83;;
47519;SDS011;33252;48.122;11.538;2022-11-30T09:38:07;30.85;;;15.40;;
47519;SDS011;33252;48.122;11.538;2022-11-30T09:40:34;28.92;;;15.60;;
47519;SDS011;33252;48.122;11.538;2022-11-30T09:43:14;29.50;;;15.25;;
47519;SDS011;33252;48.122;11.538;2022-11-30T09:45:55;32.80;;;15.68;;
47519;SDS011;33252;48.122;11.538;2022-11-30T09:48:32;35.22;;;16.92;;
47519;SDS011;33252;48.122;11.538;2022-11-30T09:51:03;30.65;;;15.23;;
47519;SDS011;33252;48.122;11.538;2022-11-30T09:53:42;29.85;;;14.55;;
47519;SDS011;33252;48.122;11.538;2022-11-30T09:56:29;32.47;;;15.73;;
47519;SDS011;33252;48.122;11.538;2022-11-30T09:59:00;30.60;;;14.82;;
47519;SDS011;33252;48.122;11.538;2022-11-30T10:01:30;30.02;;;15.75;;
47519;SDS011;33252;48.122;11.538;2022-11-30T10:03:58;33.88;;;16.50;;
47519;SDS011;33252;48.122;11.538;2022-11-30T10:06:28;30.40;;;14.48;;
47519;SDS011;33252;48.122;11.538;2022-11-30T10:09:15;25.00;;;14.68;;
47519;SDS011;33252;48.122;11.538;2022-11-30T10:26:03;23.63;;;12.50;;
47519;SDS011;33252;48.122;11.538;2022-11-30T10:29:33;24.00;;;12.13;;
47519;SDS011;33252;48.122;11.538;2022-11-30T10:31:37;20.58;;;11.07;;
47519;SDS011;33252;48.122;11.538;2022-11-30T10:34:17;23.05;;;12.05;;
47519;SDS011;33252;48.122;11.538;2022-11-30T10:39:31;17.23;;;10.00;;
47519;SDS011;33252;48.122;11.538;2022-11-30T10:42:04;20.20;;;10.10;;
47519;SDS011;33252;48.122;11.538;2022-11-30T10:45:00;19.40;;;10.27;;
47519;SDS011;33252;48.122;11.538;2022-11-30T10:47:33;23.10;;;10.95;;
47519;SDS011;33252;48.122;11.538;2022-11-30T10:50:02;25.20;;;11.13;;
47519;SDS011;33252;48.122;11.538;2022-11-30T10:52:34;20.50;;;11.80;;
47519;SDS011;33252;48.122;11.538;2022-11-30T10:55:29;24.33;;;12.75;;
47519;SDS011;33252;48.122;11.538;2022-11-30T10:57:58;24.58;;;12.48;;
47519;SDS011;33252;48.122;11.538;2022-11-30T11:00:31;25.73;;;13.90;;
47519;SDS011;33252;48.122;11.538;2022-11-30T11:02:57;25.92;;;13.00;;
47519;SDS011;33252;48.122;11.538;2022-11-30T11:05:26;25.17;;;12.65;;
47519;SDS011;33252;48.122;11.538;2022-11-30T11:08:16;22.52;;;11.10;;
47519;SDS011;33252;48.122;11.538;2022-11-30T11:10:46;22.52;;;12.15;;
47519;SDS011;33252;48.122;11.538;2022-11-30T11:13:17;25.13;;;13.00;;
47519;SDS011;33252;48.122;11.538;2022-11-30T11:15:58;25.20;;;13.15;;
47519;SDS011;33252;48.122;11.538;2022-11-30T11:18:25;26.70;;;13.43;;
47519;SDS011;33252;48.122;11.538;2022-11-30T11:21:03;22.85;;;12.98;;
47519;SDS011;33252;48.122;11.538;2022-11-30T11:23:38;22.65;;;11.88;;
47519;SDS011;33252;48.122;11.538;2022-11-30T11:26:15;20.17;;;11.10;;
47519;SDS011;33252;48.122;11.538;2022-11-30T11:28:43;22.13;;;11.48;;
47519;SDS011;33252;48.122;11.538;2022-11-30T11:31:15;23.30;;;12.20;;
47519;SDS011;33252;48.122;11.538;2022-11-30T11:34:00;25.38;;;11.60;;
47519;SDS011;33252;48.122;11.538;2022-11-30T11:36:33;21.17;;;11.32;;
47519;SDS011;33252;48.122;11.538;2022-11-30T11:39:00;20.10;;;10.43;;
47519;SDS011;33252;48.122;11.538;2022-11-30T11:41:31;17.83;;;9.98;;
47519;SDS011;33252;48.122;11.538;2022-11-30T11:46:30;16.55;;;8.80;;
47519;SDS011;33252;48.122;11.538;2022-11-30T11:49:05;16.52;;;8.85;;
47519;SDS011;33252;48.122;11.538;2022-11-30T11:51:41;16.58;;;9.00;;
47519;SDS011;33252;48.122;11.538;2022-11-30T11:56:47;17.85;;;10.25;;
47519;SDS011;33252;48.122;11.538;2022-11-30T12:01:58;19.55;;;10.43;;
47519;SDS011;33252;48.122;11.538;2022-11-30T12:12:29;21.65;;;12.73;;
47519;SDS011;33252;48.122;11.538;2022-11-30T12:14:55;18.98;;;10.55;;
47519;SDS011;33252;48.122;11.538;2022-11-30T12:25:45;24.70;;;12.70;;
47519;SDS011;33252;48.122;11.538;2022-11-30T12:28:24;24.95;;;12.68;;
47519;SDS011;33252;48.122;11.538;2022-11-30T12:31:01;27.42;;;14.27;;
47519;SDS011;33252;48.122;11.538;2022-11-30T12:36:23;21.20;;;12.88;;
47519;SDS011;33252;48.122;11.538;2022-11-30T12:39:08;26.55;;;14.68;;
47519;SDS011;33252;48.122;11.538;2022-11-30T12:42:18;23.83;;;12.80;;
47519;SDS011;33252;48.122;11.538;2022-11-30T12:44:57;29.15;;;14.65;;
47519;SDS011;33252;48.122;11.538;2022-11-30T12:50:38;25.40;;;13.52;;
47519;SDS011;33252;48.122;11.538;2022-11-30T12:59:05;26.58;;;14.40;;
47519;SDS011;33252;48.122;11.538;2022-11-30T13:07:22;27.30;;;13.15;;
47519;SDS011;33252;48.122;11.538;2022-11-30T13:10:00;28.75;;;14.80;;
47519;SDS011;33252;48.122;11.538;2022-11-30T13:12:51;24.67;;;12.50;;
47519;SDS011;33252;48.122;11.538;2022-11-30T13:15:20;26.55;;;12.93;;
47519;SDS011;33252;48.122;11.538;2022-11-30T13:17:48;24.38;;;13.18;;
47519;SDS011;33252;48.122;11.538;2022-11-30T13:20:23;23.50;;;12.45;;
47519;SDS011;33252;48.122;11.538;2022-11-30T13:31:13;22.38;;;11.35;;
47519;SDS011;33252;48.122;11.538;2022-11-30T13:44:33;19.65;;;11.85;;
47519;SDS011;33252;48.122;11.538;2022-11-30T13:49:30;22.23;;;11.27;;
47519;SDS011;33252;48.122;11.538;2022-11-30T13:52:01;16.58;;;9.90;;
47519;SDS011;33252;48.122;11.538;2022-11-30T13:54:37;22.45;;;11.43;;
47519;SDS011;33252;48.122;11.538;2022-11-30T13:59:58;21.33;;;10.35;;
47519;SDS011;33252;48.122;11.538;2022-11-30T14:07:43;22.48;;;12.35;;
47519;SDS011;33252;48.122;11.538;2022-11-30T14:13:00;22.02;;;10.95;;
47519;SDS011;33252;48.122;11.538;2022-11-30T14:15:27;24.95;;;12.70;;
47519;SDS011;33252;48.122;11.538;2022-11-30T14:20:41;26.75;;;13.98;;
47519;SDS011;33252;48.122;11.538;2022-11-30T14:23:13;27.05;;;13.45;;
47519;SDS011;33252;48.122;11.538;2022-11-30T14:25:46;21.45;;;11.00;;
47519;SDS011;33252;48.122;11.538;2022-11-30T14:28:16;24.52;;;13.75;;
47519;SDS011;33252;48.122;11.538;2022-11-30T14:30:44;27.58;;;13.65;;
47519;SDS011;33252;48.122;11.538;2022-11-30T14:33:13;24.23;;;14.55;;
47519;SDS011;33252;48.122;11.538;2022-11-30T14:35:43;25.25;;;15.43;;
47519;SDS011;33252;48.122;11.538;2022-11-30T14:38:14;27.77;;;13.95;;
47519;SDS011;33252;48.122;11.538;2022-11-30T14:40:49;27.27;;;14.43;;
47519;SDS011;33252;48.122;11.538;2022-11-30T14:43:16;26.38;;;14.57;;
47519;SDS011;33252;48.122;11.538;2022-11-30T14:45:43;25.77;;;14.00;;
47519;SDS011;33252;48.122;11.538;2022-11-30T14:48:21;25.85;;;14.43;;
47519;SDS011;33252;48.122;11.538;2022-11-30T14:50:48;28.63;;;14.30;;
47519;SDS011;33252;48.122;11.538;2022-11-30T14:53:25;29.23;;;14.73;;
47519;SDS011;33252;48.122;11.538;2022-11-30T15:05:06;32.78;;;17.25;;
47519;SDS011;33252;48.122;11.538;2022-11-30T15:07:39;34.58;;;17.15;;
47519;SDS011;33252;48.122;11.538;2022-11-30T15:10:08;33.65;;;18.55;;
47519;SDS011;33252;48.122;11.538;2022-11-30T15:12:36;34.83;;;19.38;;
47519;SDS011;33252;48.122;11.538;2022-11-30T15:15:05;31.98;;;17.48;;
47519;SDS011;33252;48.122;11.538;2022-11-30T15:20:36;32.35;;;19.15;;
47519;SDS011;33252;48.122;11.538;2022-11-30T15:23:11;36.17;;;19.05;;
47519;SDS011;33252;48.122;11.538;2022-11-30T15:25:44;38.40;;;18.27;;
47519;SDS011;33252;48.122;11.538;2022-11-30T15:28:41;32.97;;;18.67;;
47519;SDS011;33252;48.122;11.538;2022-11-30T15:31:09;33.50;;;17.60;;
47519;SDS011;33252;48.122;11.538;2022-11-30T15:33:40;28.85;;;16.38;;
47519;SDS011;33252;48.122;11.538;2022-11-30T15:36:09;31.45;;;17.13;;
47519;SDS011;33252;48.122;11.538;2022-11-30T15:38:36;32.45;;;16.85;;
47519;SDS011;33252;48.122;11.538;2022-11-30T15:41:24;34.28;;;17.95;;
47519;SDS011;33252;48.122;11.538;2022-11-30T15:43:50;34.25;;;17.90;;
47519;SDS011;33252;48.122;11.538;2022-11-30T15:54:45;34.15;;;17.00;;
47519;SDS011;33252;48.122;11.538;2022-11-30T15:57:12;33.33;;;18.45;;
47519;SDS011;33252;48.122;11.538;2022-11-30T15:59:39;30.17;;;16.42;;
47519;SDS011;33252;48.122;11.538;2022-11-30T16:02:05;33.53;;;17.15;;
47519;SDS011;33252;48.122;11.538;2022-11-30T16:07:23;33.40;;;18.70;;
47519;SDS011;33252;48.122;11.538;2022-11-30T16:09:51;30.75;;;17.25;;
47519;SDS011;33252;48.122;11.538;2022-11-30T16:12:28;32.53;;;17.58;;
47519;SDS011;33252;48.122;11.538;2022-11-30T16:14:54;31.13;;;16.17;;
47519;SDS011;33252;48.122;11.538;2022-11-30T16:17:21;32.35;;;16.55;;
47519;SDS011;33252;48.122;11.538;2022-11-30T16:19:46;33.28;;;17.05;;
47519;SDS011;33252;48.122;11.538;2022-11-30T16:22:13;34.13;;;17.98;;
47519;SDS011;33252;48.122;11.538;2022-11-30T16:24:39;32.70;;;17.50;;
47519;SDS011;33252;48.122;11.538;2022-11-30T16:27:12;33.30;;;18.50;;
47519;SDS011;33252;48.122;11.538;2022-11-30T16:29:43;40.00;;;18.48;;
47519;SDS011;33252;48.122;11.538;2022-11-30T16:32:10;32.67;;;19.10;;
47519;SDS011;33252;48.122;11.538;2022-11-30T16:34:37;32.22;;;17.42;;